Time;durP1;ratioP1;P1;durP2;ratioP2;P2;SDS_P1;SDS_P2;PMS_P1;PMS_P2;Temp;Humidity;BMP_temperature;BMP_pressure;BME280_temperature;BME280_humidity;BME280_pressure;Samples;Min_cycle;Max_cycle;Signal;HPM_P1;HPM_P2
2021/05/23 00:00:51;;;;;;;3.75;1.15;;;11.20;99.90;;;;;;4125817;28;20479;-81
2021/05/23 00:02:53;;;;;;;4.28;1.40;;;11.20;99.90;;;;;;4108424;28;20043;-81
2021/05/23 00:04:53;;;;;;;3.35;1.50;;;11.30;99.90;;;;;;4125917;28;20022;-81
2021/05/23 00:06:54;;;;;;;2.30;1.30;;;11.30;99.90;;;;;;4125617;28;20030;-81
2021/05/23 00:08:54;;;;;;;2.45;1.23;;;11.30;99.90;;;;;;4117934;28;20030;-81
2021/05/23 00:11:07;;;;;;;3.05;1.52;;;11.30;99.90;;;;;;4126060;28;20031;-82
2021/05/23 00:13:09;;;;;;;3.50;1.63;;;11.30;99.90;;;;;;4109198;28;20503;-81
2021/05/23 00:15:11;;;;;;;1.55;1.10;;;11.30;99.90;;;;;;4126029;28;20273;-81
2021/05/23 00:17:12;;;;;;;5.68;1.63;;;11.30;99.90;;;;;;4127427;28;20467;-81
2021/05/23 00:19:13;;;;;;;3.28;1.30;;;11.30;99.90;;;;;;4127069;28;20061;-81
2021/05/23 00:21:17;;;;;;;1.88;1.23;;;11.30;99.90;;;;;;4109865;28;20054;-81
2021/05/23 00:23:17;;;;;;;4.45;1.30;;;11.30;99.90;;;;;;4109783;28;20519;-81
2021/05/23 00:25:20;;;;;;;4.68;1.70;;;11.30;99.90;;;;;;4126987;28;20038;-81
2021/05/23 00:27:22;;;;;;;;;;;11.30;99.90;;;;;;4127980;28;20039;-81
2021/05/23 00:29:22;;;;;;;2.03;1.35;;;11.20;99.90;;;;;;4125433;28;19913;-81
2021/05/23 00:31:23;;;;;;;2.83;1.40;;;11.20;99.90;;;;;;4127457;28;20438;-81
2021/05/23 00:33:23;;;;;;;3.00;1.60;;;11.20;99.90;;;;;;4125825;28;21028;-81
2021/05/23 00:35:24;;;;;;;5.25;1.38;;;11.30;99.90;;;;;;4125839;28;20392;-81
2021/05/23 00:37:26;;;;;;;3.22;1.50;;;11.30;99.90;;;;;;4125338;28;20340;-81
2021/05/23 00:39:27;;;;;;;6.83;1.33;;;11.30;99.90;;;;;;4125637;28;20038;-81
2021/05/23 00:41:28;;;;;;;3.80;1.40;;;11.30;99.90;;;;;;4109782;28;20282;-81
2021/05/23 00:43:28;;;;;;;1.60;1.08;;;11.30;99.90;;;;;;4119152;28;20351;-81
2021/05/23 00:45:29;;;;;;;3.03;1.58;;;11.30;99.90;;;;;;4125932;28;20505;-81
2021/05/23 00:47:29;;;;;;;1.92;1.30;;;11.30;99.90;;;;;;4126128;28;20487;-81
2021/05/23 00:49:30;;;;;;;3.95;1.40;;;11.40;99.90;;;;;;4125192;28;20034;-81
2021/05/23 00:51:31;;;;;;;2.40;1.50;;;11.30;99.90;;;;;;4126030;28;20120;-81
2021/05/23 00:53:32;;;;;;;3.72;1.17;;;11.30;99.90;;;;;;4125805;28;20034;-81
2021/05/23 00:55:33;;;;;;;2.38;1.40;;;11.30;99.90;;;;;;4125194;28;20034;-81
2021/05/23 00:57:34;;;;;;;4.13;1.88;;;11.30;99.90;;;;;;4126175;28;20469;-81
2021/05/23 00:59:35;;;;;;;2.97;1.65;;;11.30;99.90;;;;;;4109697;28;20034;-81
2021/05/23 01:01:44;;;;;;;3.35;1.52;;;11.20;99.90;;;;;;4127315;28;20398;-81
2021/05/23 01:03:53;;;;;;;3.17;1.60;;;11.30;99.90;;;;;;4109600;28;20109;-81
2021/05/23 01:06:05;;;;;;;3.63;1.70;;;11.30;99.90;;;;;;4129449;28;20037;-81
2021/05/23 01:08:05;;;;;;;2.78;1.60;;;11.30;99.90;;;;;;4129468;28;20030;-82
2021/05/23 01:10:18;;;;;;;2.70;1.65;;;11.30;99.90;;;;;;4112602;28;20027;-81
2021/05/23 01:12:58;;;;;;;2.92;1.60;;;11.30;99.90;;;;;;4128703;28;20038;-81
2021/05/23 01:15:01;;;;;;;2.70;1.52;;;11.30;99.90;;;;;;4089920;28;20122;-81
2021/05/23 01:17:02;;;;;;;;;;;11.20;99.90;;;;;;4129113;28;20065;-81
2021/05/23 01:19:21;;;;;;;2.72;1.55;;;11.20;99.90;;;;;;4128481;28;19917;-81
2021/05/23 01:21:23;;;;;;;4.07;1.70;;;11.30;99.90;;;;;;4112642;28;20039;-81
2021/05/23 01:23:27;;;;;;;6.07;2.13;;;11.20;99.90;;;;;;4130049;28;20045;-81
2021/05/23 01:25:29;;;;;;;2.10;1.80;;;11.30;99.90;;;;;;4112189;28;20166;-81
2021/05/23 01:27:36;;;;;;;4.55;2.25;;;11.20;99.90;;;;;;4120463;28;20035;-82
2021/05/23 01:29:38;;;;;;;4.28;1.95;;;11.20;99.90;;;;;;4112045;28;20031;-82
2021/05/23 01:31:40;;;;;;;5.28;2.50;;;11.20;99.90;;;;;;4127976;28;20034;-82
2021/05/23 01:33:41;;;;;;;4.50;1.95;;;11.20;99.90;;;;;;4128704;28;20033;-81
2021/05/23 01:35:50;;;;;;;4.80;2.15;;;11.10;99.90;;;;;;4130294;28;20066;-81
2021/05/23 01:37:55;;;;;;;3.15;1.77;;;11.10;99.90;;;;;;4128377;28;20114;-81
2021/05/23 01:39:56;;;;;;;3.63;1.95;;;11.20;99.90;;;;;;4127595;28;20044;-81
2021/05/23 01:41:58;;;;;;;4.35;1.85;;;11.10;99.90;;;;;;4127791;28;20129;-81
2021/05/23 01:43:59;;;;;;;3.67;2.20;;;11.10;99.90;;;;;;4127616;28;20057;-81
2021/05/23 01:46:01;;;;;;;3.60;2.15;;;11.10;99.90;;;;;;4111910;28;20043;-81
2021/05/23 01:48:04;;;;;;;2.80;1.88;;;11.10;99.90;;;;;;4111769;28;20034;-81
2021/05/23 01:50:06;;;;;;;4.38;2.08;;;11.20;99.90;;;;;;4144688;28;20080;-81
2021/05/23 01:52:06;;;;;;;6.03;2.40;;;11.20;99.90;;;;;;4128841;28;20033;-81
2021/05/23 01:54:07;;;;;;;3.25;2.38;;;11.20;99.90;;;;;;4111664;28;20026;-81
2021/05/23 01:56:11;;;;;;;3.33;1.52;;;11.20;99.90;;;;;;4127528;28;20113;-81
2021/05/23 01:58:12;;;;;;;3.33;1.73;;;11.10;99.90;;;;;;4127845;28;20042;-81
2021/05/23 02:00:16;;;;;;;3.78;2.03;;;11.20;99.90;;;;;;4129419;28;20101;-81
2021/05/23 02:02:17;;;;;;;3.97;2.13;;;11.20;99.90;;;;;;4103724;28;20042;-81
2021/05/23 02:04:19;;;;;;;3.25;2.10;;;11.20;99.90;;;;;;4111283;28;20105;-81
2021/05/23 02:06:19;;;;;;;3.17;2.20;;;11.20;99.90;;;;;;4126658;28;20042;-81
2021/05/23 02:08:22;;;;;;;3.72;2.03;;;11.20;99.90;;;;;;4128195;28;20053;-81
2021/05/23 02:10:23;;;;;;;3.65;2.05;;;11.30;99.90;;;;;;4111681;28;20548;-81
2021/05/23 02:12:25;;;;;;;3.88;2.10;;;11.20;99.90;;;;;;4127139;28;20093;-81
2021/05/23 02:14:26;;;;;;;3.03;1.90;;;11.30;99.90;;;;;;4127069;28;20347;-81
2021/05/23 02:16:26;;;;;;;3.22;2.10;;;11.30;99.90;;;;;;4126491;28;20037;-82
2021/05/23 02:18:29;;;;;;;3.33;2.40;;;11.20;99.90;;;;;;4127514;28;20084;-82
2021/05/23 02:20:31;;;;;;;3.63;2.10;;;11.20;99.90;;;;;;4111630;28;20427;-82
2021/05/23 02:22:37;;;;;;;2.10;1.75;;;11.20;99.90;;;;;;4127327;28;20130;-82
2021/05/23 02:24:38;;;;;;;3.28;2.00;;;11.30;99.90;;;;;;4127744;28;20039;-82
2021/05/23 02:26:38;;;;;;;2.38;1.98;;;11.20;99.90;;;;;;4129234;28;20106;-82
2021/05/23 02:28:39;;;;;;;3.75;2.30;;;11.30;99.90;;;;;;4126482;28;20503;-82
2021/05/23 02:30:46;;;;;;;3.78;2.55;;;11.30;99.90;;;;;;4126932;28;20494;-82
2021/05/23 02:32:47;;;;;;;4.25;2.40;;;11.30;99.90;;;;;;4126361;28;20404;-82
2021/05/23 02:34:49;;;;;;;4.50;2.72;;;11.30;99.90;;;;;;4126947;28;20112;-82
2021/05/23 02:36:50;;;;;;;4.03;2.80;;;11.30;99.90;;;;;;4127544;28;20122;-82
2021/05/23 02:38:51;;;;;;;4.07;2.72;;;11.30;99.90;;;;;;4128850;28;20471;-82
2021/05/23 02:40:53;;;;;;;4.63;2.70;;;11.30;99.90;;;;;;4126150;28;20034;-82
2021/05/23 02:42:54;;;;;;;3.90;2.35;;;11.30;99.90;;;;;;4110812;28;20094;-81
2021/05/23 02:44:54;;;;;;;4.13;2.70;;;11.30;99.90;;;;;;4129484;28;20459;-82
2021/05/23 02:46:55;;;;;;;3.60;2.47;;;11.30;99.90;;;;;;4111428;28;20033;-82
2021/05/23 02:48:58;;;;;;;3.65;2.75;;;11.30;99.90;;;;;;4126420;28;20110;-82
2021/05/23 02:51:03;;;;;;;3.60;2.90;;;11.30;99.90;;;;;;4110332;28;20027;-81
2021/05/23 02:53:07;;;;;;;3.97;2.83;;;11.30;99.90;;;;;;4128247;28;20031;-81
2021/05/23 02:55:09;;;;;;;4.15;2.70;;;11.30;99.90;;;;;;4127869;28;20023;-81
2021/05/23 02:57:09;;;;;;;3.53;2.80;;;11.30;99.90;;;;;;4126722;28;20041;-81
2021/05/23 02:59:10;;;;;;;3.97;3.05;;;11.30;99.90;;;;;;4126209;28;20039;-82
2021/05/23 03:01:11;;;;;;;7.78;3.67;;;11.30;99.90;;;;;;4126717;28;20113;-82
2021/05/23 03:03:12;;;;;;;5.82;3.20;;;11.30;99.90;;;;;;4126191;28;20089;-82
2021/05/23 03:05:15;;;;;;;3.20;2.78;;;11.20;99.90;;;;;;4128652;28;20061;-81
2021/05/23 03:07:16;;;;;;;4.25;3.08;;;11.30;99.90;;;;;;4108710;28;20272;-81
2021/05/23 03:09:17;;;;;;;3.30;2.70;;;11.30;99.90;;;;;;4110500;28;20403;-81
2021/05/23 03:11:17;;;;;;;3.70;3.10;;;11.30;99.90;;;;;;4125032;28;20570;-81
2021/05/23 03:13:19;;;;;;;5.88;3.50;;;11.30;99.90;;;;;;4127481;28;20082;-82
2021/05/23 03:15:23;;;;;;;4.05;3.40;;;11.30;99.90;;;;;;4110282;28;20027;-81
2021/05/23 03:17:23;;;;;;;4.50;3.58;;;11.30;99.90;;;;;;4125760;28;20065;-81
2021/05/23 03:19:24;;;;;;;6.05;4.50;;;11.40;99.90;;;;;;4125334;28;20030;-81
2021/05/23 03:21:25;;;;;;;5.75;4.20;;;11.30;99.90;;;;;;4127850;28;20510;-82
2021/05/23 03:23:25;;;;;;;7.47;4.88;;;11.30;99.90;;;;;;4126713;28;20061;-82
2021/05/23 03:25:28;;;;;;;5.93;4.35;;;11.40;99.90;;;;;;4127146;28;20033;-82
2021/05/23 03:27:28;;;;;;;5.15;4.50;;;11.40;99.90;;;;;;4125673;28;20155;-82
2021/05/23 03:29:29;;;;;;;6.43;4.30;;;11.40;99.90;;;;;;4110444;28;20438;-82
2021/05/23 03:31:30;;;;;;;7.20;5.57;;;11.40;99.90;;;;;;4126023;28;20049;-82
2021/05/23 03:33:30;;;;;;;5.75;4.70;;;11.30;99.90;;;;;;4110426;28;20027;-82
2021/05/23 03:35:32;;;;;;;6.40;4.97;;;11.40;99.90;;;;;;4126793;28;20039;-82
2021/05/23 03:37:32;;;;;;;5.90;4.93;;;11.40;99.90;;;;;;4110406;28;20059;-82
2021/05/23 03:39:33;;;;;;;4.90;4.40;;;11.40;99.90;;;;;;4128354;28;20034;-82
2021/05/23 03:41:34;;;;;;;5.55;4.72;;;11.40;99.90;;;;;;4125770;28;20042;-82
2021/05/23 03:43:34;;;;;;;6.53;4.82;;;11.40;99.90;;;;;;4126773;28;20101;-82
2021/05/23 03:45:36;;;;;;;8.43;5.35;;;11.50;99.90;;;;;;4125995;28;20506;-82
2021/05/23 03:47:37;;;;;;;7.88;5.60;;;11.50;99.90;;;;;;4110702;28;20045;-82
2021/05/23 03:49:38;;;;;;;8.20;5.65;;;11.40;99.90;;;;;;4097819;28;20280;-82
2021/05/23 03:51:38;;;;;;;6.40;5.30;;;11.40;99.90;;;;;;4125800;28;20113;-82
2021/05/23 03:53:40;;;;;;;6.97;5.32;;;11.40;99.90;;;;;;4127939;28;20061;-81
2021/05/23 03:55:40;;;;;;;9.43;6.82;;;11.50;99.90;;;;;;4126596;28;20113;-81
2021/05/23 03:57:41;;;;;;;8.25;5.88;;;11.50;99.90;;;;;;4125887;28;20034;-81
2021/05/23 03:59:42;;;;;;;8.00;5.75;;;11.40;99.90;;;;;;4125108;28;20146;-81
2021/05/23 04:01:43;;;;;;;7.30;5.63;;;11.50;99.90;;;;;;4125368;28;20702;-81
2021/05/23 04:03:43;;;;;;;8.00;5.75;;;11.50;99.90;;;;;;4126765;28;20038;-81
2021/05/23 04:05:44;;;;;;;9.98;7.30;;;11.50;99.90;;;;;;4126579;28;20053;-81
2021/05/23 04:07:45;;;;;;;13.18;7.30;;;11.50;99.90;;;;;;4109487;28;20542;-81
2021/05/23 04:09:47;;;;;;;9.32;7.22;;;11.50;99.90;;;;;;4126089;28;20086;-81
2021/05/23 04:11:50;;;;;;;10.45;6.53;;;11.40;99.90;;;;;;4125770;28;20064;-81
2021/05/23 04:13:51;;;;;;;8.20;6.90;;;11.50;99.90;;;;;;4126219;28;20066;-82
2021/05/23 04:15:52;;;;;;;6.90;5.90;;;11.40;99.90;;;;;;4125621;28;20450;-82
2021/05/23 04:17:53;;;;;;;8.30;7.07;;;11.50;99.90;;;;;;4109569;28;20130;-82
2021/05/23 04:19:55;;;;;;;12.02;8.23;;;11.50;99.90;;;;;;4127588;28;20041;-82
2021/05/23 04:21:55;;;;;;;8.57;6.75;;;11.50;99.90;;;;;;4125384;28;20031;-82
2021/05/23 04:23:56;;;;;;;10.00;6.90;;;11.40;99.90;;;;;;4109584;28;20460;-82
2021/05/23 04:25:57;;;;;;;10.23;7.32;;;11.50;99.90;;;;;;4125606;28;20113;-82
2021/05/23 04:27:58;;;;;;;10.70;7.07;;;11.50;99.90;;;;;;4126885;28;20023;-82
2021/05/23 04:29:58;;;;;;;7.07;5.88;;;11.50;99.90;;;;;;4125752;28;20037;-81
2021/05/23 04:32:01;;;;;;;9.10;6.20;;;11.50;99.90;;;;;;4109679;28;20039;-81
2021/05/23 04:34:01;;;;;;;11.90;7.28;;;11.50;99.90;;;;;;4109411;28;20198;-82
2021/05/23 04:36:02;;;;;;;9.88;7.68;;;11.50;99.90;;;;;;4127839;28;20042;-82
2021/05/23 04:38:07;;;;;;;11.45;7.10;;;11.40;99.90;;;;;;4127393;28;20104;-82
2021/05/23 04:40:09;;;;;;;8.15;6.43;;;11.50;99.90;;;;;;4120745;28;20142;-82
2021/05/23 04:42:10;;;;;;;16.45;8.10;;;11.50;99.90;;;;;;4120316;28;20038;-82
2021/05/23 04:44:10;;;;;;;9.43;5.78;;;11.50;99.90;;;;;;4127817;28;20514;-81
2021/05/23 04:46:11;;;;;;;8.60;6.57;;;11.50;99.90;;;;;;4128632;28;20102;-82
2021/05/23 04:48:12;;;;;;;5.95;4.93;;;11.50;99.90;;;;;;4130636;28;20038;-82
2021/05/23 04:50:13;;;;;;;9.23;6.60;;;11.50;99.90;;;;;;4112751;28;20031;-81
2021/05/23 04:52:14;;;;;;;13.50;7.05;;;11.50;99.90;;;;;;4128996;28;20413;-81
2021/05/23 04:54:15;;;;;;;9.20;6.10;;;11.50;99.90;;;;;;4104247;28;20119;-81
2021/05/23 04:56:15;;;;;;;8.52;6.07;;;11.40;99.90;;;;;;4112764;28;20031;-81
2021/05/23 04:58:16;;;;;;;9.85;6.20;;;11.50;99.90;;;;;;4129198;28;20069;-81
2021/05/23 05:00:17;;;;;;;7.72;5.78;;;11.50;99.90;;;;;;4128580;28;20081;-81
2021/05/23 05:02:19;;;;;;;7.90;5.78;;;11.50;99.90;;;;;;4128708;28;20252;-82
2021/05/23 05:04:19;;;;;;;11.23;6.45;;;11.50;99.90;;;;;;4127804;28;20042;-81
2021/05/23 05:06:20;;;;;;;7.38;5.30;;;11.40;99.90;;;;;;4129224;28;20031;-81
2021/05/23 05:08:21;;;;;;;6.97;4.80;;;11.50;99.90;;;;;;4128141;28;20423;-81
2021/05/23 05:10:21;;;;;;;10.68;5.40;;;11.40;99.90;;;;;;4113363;28;20050;-81
2021/05/23 05:12:22;;;;;;;5.80;4.45;;;11.30;99.90;;;;;;4123499;28;20113;-81
2021/05/23 05:14:23;;;;;;;6.43;4.20;;;11.40;99.90;;;;;;4111378;28;20510;-80
2021/05/23 05:16:23;;;;;;;8.05;4.68;;;11.40;99.90;;;;;;4128638;28;20038;-81
2021/05/23 05:18:24;;;;;;;5.80;4.05;;;11.40;99.90;;;;;;4128432;28;20497;-81
2021/05/23 05:20:26;;;;;;;8.70;4.15;;;11.40;99.90;;;;;;4127778;28;20154;-81
2021/05/23 05:22:27;;;;;;;6.97;4.40;;;11.30;99.90;;;;;;4127461;28;20054;-80
2021/05/23 05:24:28;;;;;;;6.10;3.80;;;11.30;99.90;;;;;;4106291;28;20514;-80
2021/05/23 05:26:29;;;;;;;11.73;4.90;;;11.30;99.90;;;;;;4129434;28;20049;-80
2021/05/23 05:28:29;;;;;;;8.90;4.32;;;11.20;99.90;;;;;;4124306;28;20259;-80
2021/05/23 05:30:30;;;;;;;8.88;4.15;;;11.20;99.90;;;;;;4118962;28;20034;-80
2021/05/23 05:32:30;;;;;;;9.52;4.72;;;11.20;99.90;;;;;;4104082;28;20046;-80
2021/05/23 05:34:31;;;;;;;6.70;3.95;;;11.20;99.90;;;;;;4121862;28;20034;-80
2021/05/23 05:36:32;;;;;;;14.27;4.72;;;11.20;99.90;;;;;;4105213;28;20089;-81
2021/05/23 05:38:32;;;;;;;8.88;4.07;;;11.10;99.90;;;;;;4113993;28;20035;-80
2021/05/23 05:40:33;;;;;;;6.80;3.75;;;11.10;99.90;;;;;;4108202;28;20027;-80
2021/05/23 05:42:33;;;;;;;7.38;3.92;;;11.10;99.90;;;;;;4117005;28;20031;-80
2021/05/23 05:44:34;;;;;;;11.80;4.30;;;11.10;99.90;;;;;;4121215;28;20077;-80
2021/05/23 05:46:35;;;;;;;8.45;3.72;;;11.10;99.90;;;;;;4124148;28;20039;-80
2021/05/23 05:48:35;;;;;;;6.30;3.10;;;11.10;99.90;;;;;;4105430;28;20031;-81
2021/05/23 05:50:36;;;;;;;9.35;3.40;;;11.20;99.90;;;;;;4124102;28;20104;-81
2021/05/23 05:52:36;;;;;;;6.03;3.42;;;11.20;99.90;;;;;;4099666;28;20061;-81
2021/05/23 05:54:37;;;;;;;8.05;3.50;;;11.20;99.90;;;;;;4120330;28;20081;-81
2021/05/23 05:56:38;;;;;;;6.43;3.13;;;11.10;99.90;;;;;;4119539;28;20035;-81
2021/05/23 05:58:39;;;;;;;8.95;3.70;;;11.10;99.90;;;;;;4125686;28;20039;-81
2021/05/23 06:00:39;;;;;;;6.75;2.90;;;11.10;99.90;;;;;;4118319;28;20070;-81
2021/05/23 06:02:40;;;;;;;8.82;2.97;;;11.20;99.90;;;;;;4121662;28;20529;-80
2021/05/23 06:04:41;;;;;;;8.35;3.00;;;11.10;99.90;;;;;;4107670;28;20039;-80
2021/05/23 06:06:41;;;;;;;7.30;2.60;;;11.10;99.90;;;;;;4124181;28;20040;-81
2021/05/23 06:08:42;;;;;;;4.55;2.60;;;11.10;99.90;;;;;;4118706;28;20050;-81
2021/05/23 06:10:43;;;;;;;7.32;2.47;;;11.10;99.90;;;;;;4122964;28;20038;-81
2021/05/23 06:12:43;;;;;;;9.07;2.42;;;11.10;99.90;;;;;;4121621;28;20070;-81
2021/05/23 06:14:45;;;;;;;6.63;2.17;;;11.10;99.90;;;;;;4119331;28;20495;-81
2021/05/23 06:16:45;;;;;;;7.72;2.30;;;11.10;99.90;;;;;;4118777;28;20030;-81
2021/05/23 06:18:46;;;;;;;7.10;2.42;;;11.10;99.90;;;;;;4118143;28;20062;-81
2021/05/23 06:20:46;;;;;;;9.52;2.47;;;11.10;99.90;;;;;;4122088;28;20042;-81
2021/05/23 06:22:47;;;;;;;5.63;2.10;;;11.10;99.90;;;;;;4122672;28;20034;-81
2021/05/23 06:24:48;;;;;;;7.32;2.20;;;11.10;99.90;;;;;;4119473;28;20030;-81
2021/05/23 06:26:48;;;;;;;4.53;1.85;;;11.10;99.90;;;;;;4120439;28;20035;-80
2021/05/23 06:28:49;;;;;;;7.03;2.35;;;11.20;99.90;;;;;;4124821;28;20216;-81
2021/05/23 06:30:50;;;;;;;4.72;2.00;;;11.10;99.90;;;;;;4104344;28;20039;-81
2021/05/23 06:32:51;;;;;;;3.50;1.77;;;11.10;99.90;;;;;;4117826;28;20049;-80
2021/05/23 06:34:52;;;;;;;9.00;2.22;;;11.20;99.90;;;;;;4120535;28;20027;-80
2021/05/23 06:36:53;;;;;;;5.20;1.90;;;11.20;99.90;;;;;;4118999;28;20503;-80
2021/05/23 06:38:53;;;;;;;5.35;2.00;;;11.20;99.90;;;;;;4103949;28;20043;-80
2021/05/23 06:40:55;;;;;;;8.52;2.40;;;11.30;99.90;;;;;;4119573;28;20042;-80
2021/05/23 06:42:55;;;;;;;6.32;2.10;;;11.20;99.90;;;;;;4123943;28;20483;-80
2021/05/23 06:44:56;;;;;;;4.45;2.00;;;11.30;99.90;;;;;;4106241;28;20045;-80
2021/05/23 06:46:57;;;;;;;6.47;2.33;;;11.30;99.90;;;;;;4122619;28;20042;-81
2021/05/23 06:48:58;;;;;;;8.52;2.55;;;11.30;99.90;;;;;;4124994;28;20518;-81
2021/05/23 06:50:58;;;;;;;10.25;2.92;;;11.40;99.90;;;;;;4104202;28;20178;-81
2021/05/23 06:52:59;;;;;;;6.60;2.20;;;11.40;99.90;;;;;;4121548;28;20502;-80
2021/05/23 06:54:59;;;;;;;11.50;2.80;;;11.50;99.90;;;;;;4120072;28;20030;-80
2021/05/23 06:57:00;;;;;;;10.05;2.78;;;11.60;99.90;;;;;;4103830;28;20097;-81
2021/05/23 06:59:01;;;;;;;6.78;2.25;;;11.60;99.90;;;;;;4123803;28;20093;-80
2021/05/23 07:01:02;;;;;;;8.88;2.35;;;11.60;99.90;;;;;;4116832;28;20514;-81
2021/05/23 07:03:03;;;;;;;5.20;2.60;;;11.60;99.90;;;;;;4120309;28;20038;-78
2021/05/23 07:05:04;;;;;;;6.95;2.40;;;11.70;99.90;;;;;;4120055;28;20061;-78
2021/05/23 07:07:05;;;;;;;8.07;2.47;;;11.70;99.90;;;;;;4118477;28;20035;-79
2021/05/23 07:09:05;;;;;;;7.55;2.53;;;11.70;99.90;;;;;;4120936;28;20026;-78
2021/05/23 07:11:06;;;;;;;7.57;2.42;;;11.70;99.90;;;;;;4117837;28;20027;-79
2021/05/23 07:13:07;;;;;;;11.85;2.85;;;11.70;99.90;;;;;;4119566;28;20483;-79
2021/05/23 07:15:08;;;;;;;6.65;2.30;;;11.60;99.90;;;;;;4102864;28;20037;-79
2021/05/23 07:17:09;;;;;;;8.27;3.17;;;11.70;99.90;;;;;;4120105;28;20031;-80
2021/05/23 07:19:09;;;;;;;14.80;2.63;;;11.70;99.90;;;;;;4105105;28;20022;-79
2021/05/23 07:21:10;;;;;;;11.23;2.60;;;11.60;99.90;;;;;;4127706;28;20038;-79
2021/05/23 07:23:11;;;;;;;9.52;2.03;;;11.70;99.90;;;;;;4122809;28;20033;-79
2021/05/23 07:25:13;;;;;;;6.57;2.00;;;11.70;99.90;;;;;;4123818;28;20030;-79
2021/05/23 07:27:14;;;;;;;3.83;1.65;;;11.70;99.90;;;;;;4120313;28;20023;-79
2021/05/23 07:29:14;;;;;;;5.40;1.90;;;11.80;99.90;;;;;;4120707;28;20443;-79
2021/05/23 07:31:15;;;;;;;9.73;2.45;;;11.90;99.90;;;;;;4124938;28;20375;-79
2021/05/23 07:33:17;;;;;;;5.82;2.20;;;11.90;99.90;;;;;;4118539;28;20035;-79
2021/05/23 07:35:18;;;;;;;8.30;1.98;;;11.90;99.90;;;;;;4121039;28;20040;-79
2021/05/23 07:37:18;;;;;;;4.78;1.58;;;11.90;99.90;;;;;;4126374;28;20062;-79
2021/05/23 07:39:19;;;;;;;6.50;1.38;;;11.90;99.90;;;;;;4124165;28;20468;-79
2021/05/23 07:41:20;;;;;;;5.50;1.60;;;12.00;99.90;;;;;;4119480;28;20095;-79
2021/05/23 07:43:20;;;;;;;10.13;1.90;;;12.10;99.90;;;;;;4122753;28;20035;-79
2021/05/23 07:45:22;;;;;;;12.48;2.50;;;12.10;99.90;;;;;;4124135;28;20038;-79
2021/05/23 07:47:29;;;;;;;5.63;2.05;;;12.10;99.90;;;;;;4123511;28;20049;-79
2021/05/23 07:49:29;;;;;;;8.68;2.17;;;12.10;99.90;;;;;;4121223;28;20113;-79
2021/05/23 07:51:30;;;;;;;7.45;1.75;;;12.20;99.90;;;;;;4121424;28;20031;-79
2021/05/23 07:53:40;;;;;;;5.97;1.83;;;12.10;99.90;;;;;;4119679;28;20081;-79
2021/05/23 07:55:41;;;;;;;6.65;2.20;;;12.20;99.90;;;;;;4121937;28;20030;-79
2021/05/23 07:57:42;;;;;;;5.80;2.00;;;12.20;99.90;;;;;;4126746;28;20034;-79
2021/05/23 07:59:43;;;;;;;8.03;2.50;;;12.30;99.90;;;;;;4104479;28;20028;-79
2021/05/23 08:01:44;;;;;;;9.13;2.13;;;12.20;99.90;;;;;;4119967;28;20620;-79
2021/05/23 08:03:44;;;;;;;8.70;2.20;;;12.20;99.90;;;;;;4120416;28;20066;-79
2021/05/23 08:05:45;;;;;;;10.18;2.08;;;12.20;99.90;;;;;;4127685;28;20081;-79
2021/05/23 08:07:45;;;;;;;5.70;1.77;;;12.20;99.90;;;;;;4122209;28;20631;-81
2021/05/23 08:09:46;;;;;;;7.60;2.13;;;12.20;99.90;;;;;;4123411;28;20038;-81
2021/05/23 08:11:47;;;;;;;10.77;2.05;;;12.20;99.90;;;;;;4117726;28;20137;-80
2021/05/23 08:13:48;;;;;;;8.32;2.10;;;12.30;99.90;;;;;;4123712;28;20482;-80
2021/05/23 08:15:49;;;;;;;7.97;1.85;;;12.30;99.90;;;;;;4117270;28;20050;-81
2021/05/23 08:17:53;;;;;;;5.97;1.75;;;12.40;99.90;;;;;;4130387;28;20112;-80
2021/05/23 08:19:53;;;;;;;5.80;1.80;;;12.50;99.90;;;;;;4113405;28;20038;-79
2021/05/23 08:21:54;;;;;;;7.28;2.10;;;12.60;99.90;;;;;;4113684;28;20034;-81
2021/05/23 08:23:55;;;;;;;10.35;2.80;;;12.70;99.90;;;;;;4121336;28;20044;-81
2021/05/23 08:25:57;;;;;;;7.07;2.10;;;12.80;99.90;;;;;;4125304;28;20027;-81
2021/05/23 08:27:57;;;;;;;7.07;2.08;;;12.90;99.90;;;;;;4113145;28;20029;-78
2021/05/23 08:29:59;;;;;;;3.30;1.95;;;12.90;99.90;;;;;;4110328;28;20680;-78
2021/05/23 08:32:01;;;;;;;6.63;1.90;;;12.90;99.90;;;;;;4136647;28;20602;-78
2021/05/23 08:34:03;;;;;;;5.60;1.70;;;13.00;99.90;;;;;;4127675;28;20046;-78
2021/05/23 08:36:04;;;;;;;5.30;1.80;;;13.10;99.90;;;;;;4110564;28;20046;-78
2021/05/23 08:38:06;;;;;;;7.03;1.98;;;13.20;99.90;;;;;;4126828;28;20030;-78
2021/05/23 08:40:07;;;;;;;5.63;1.50;;;13.20;99.90;;;;;;4124857;28;20047;-78
2021/05/23 08:42:08;;;;;;;7.18;2.22;;;13.20;99.90;;;;;;4122460;28;20542;-78
2021/05/23 08:44:09;;;;;;;8.75;2.47;;;13.30;99.90;;;;;;4120879;28;20090;-81
2021/05/23 08:46:16;;;;;;;3.92;1.60;;;13.30;99.90;;;;;;4119332;28;20030;-80
2021/05/23 08:48:18;;;;;;;4.68;1.77;;;13.40;99.90;;;;;;4124278;28;20043;-79
2021/05/23 08:50:26;;;;;;;7.95;2.30;;;13.40;99.90;;;;;;4127229;28;20035;-79
2021/05/23 08:52:28;;;;;;;6.53;2.03;;;13.50;99.90;;;;;;4117897;28;20047;-79
2021/05/23 08:54:29;;;;;;;6.10;1.80;;;13.50;99.90;;;;;;4121660;28;20099;-78
2021/05/23 08:56:30;;;;;;;5.43;1.98;;;13.60;99.90;;;;;;4125950;28;20046;-79
2021/05/23 08:58:30;;;;;;;6.68;1.45;;;13.70;99.90;;;;;;4128666;28;20109;-79
2021/05/23 09:00:32;;;;;;;4.03;1.60;;;13.70;99.90;;;;;;4108763;28;20039;-79
2021/05/23 09:02:33;;;;;;;8.48;1.73;;;13.80;99.90;;;;;;4124550;28;20590;-79
2021/05/23 09:04:45;;;;;;;6.40;2.03;;;13.80;99.90;;;;;;4121079;28;20035;-79
2021/05/23 09:06:46;;;;;;;14.90;2.63;;;13.90;99.90;;;;;;4119839;28;20030;-79
2021/05/23 09:08:59;;;;;;;5.25;1.77;;;13.90;99.90;;;;;;4097546;28;20035;-78
2021/05/23 09:11:06;;;;;;;5.55;1.73;;;14.00;99.90;;;;;;4114770;28;20043;-79
2021/05/23 09:13:07;;;;;;;5.88;1.98;;;14.00;99.90;;;;;;4112360;28;20050;-79
2021/05/23 09:15:12;;;;;;;7.80;1.33;;;14.00;99.90;;;;;;4113482;28;20118;-79
2021/05/23 09:17:31;;;;;;;5.32;1.45;;;14.00;99.90;;;;;;4118776;28;20105;-79
2021/05/23 09:19:42;;;;;;;6.45;1.60;;;14.20;99.90;;;;;;4112671;28;20477;-79
2021/05/23 09:21:43;;;;;;;3.97;1.70;;;14.20;99.90;;;;;;4119285;28;20031;-79
2021/05/23 09:23:48;;;;;;;8.43;1.33;;;14.20;99.90;;;;;;4118259;28;20045;-79
2021/05/23 09:25:49;;;;;;;4.47;1.52;;;14.20;99.90;;;;;;4124753;28;20043;-79
2021/05/23 09:27:50;;;;;;;10.32;1.88;;;14.30;99.90;;;;;;4119561;28;20038;-79
2021/05/23 09:30:04;;;;;;;8.60;1.60;;;14.40;99.90;;;;;;4112105;28;20119;-79
2021/05/23 09:32:18;;;;;;;4.57;1.20;;;14.40;99.90;;;;;;4123796;28;20035;-79
2021/05/23 09:34:21;;;;;;;5.75;1.70;;;14.50;99.90;;;;;;4125208;28;20699;-79
2021/05/23 09:36:23;;;;;;;4.78;1.55;;;14.50;99.90;;;;;;4127326;28;20495;-79
2021/05/23 09:38:24;;;;;;;4.65;1.70;;;14.50;99.90;;;;;;4125255;28;20042;-79
2021/05/23 09:40:28;;;;;;;4.35;1.75;;;14.60;99.90;;;;;;4113796;28;20109;-79
2021/05/23 09:42:29;;;;;;;6.65;1.88;;;14.60;99.90;;;;;;4132409;28;20042;-79
2021/05/23 09:44:29;;;;;;;6.30;1.73;;;14.60;99.90;;;;;;4129354;28;20058;-80
2021/05/23 09:46:33;;;;;;;6.18;2.00;;;14.70;99.90;;;;;;4132978;28;20030;-79
2021/05/23 09:48:34;;;;;;;5.47;1.60;;;14.60;99.90;;;;;;4112509;28;20542;-79
2021/05/23 09:50:39;;;;;;;3.97;1.42;;;14.70;99.90;;;;;;4130200;28;20117;-79
2021/05/23 09:52:40;;;;;;;3.78;1.40;;;14.80;99.90;;;;;;4121226;28;20400;-79
2021/05/23 09:54:53;;;;;;;7.75;1.98;;;14.90;99.90;;;;;;4127249;28;20049;-79
2021/05/23 09:56:55;;;;;;;4.32;1.90;;;15.00;99.90;;;;;;4122351;28;20112;-79
2021/05/23 09:59:02;;;;;;;3.47;1.27;;;14.90;99.90;;;;;;4141929;28;20489;-79
2021/05/23 10:01:23;;;;;;;5.95;1.60;;;14.90;99.90;;;;;;4122729;28;20062;-79
2021/05/23 10:03:29;;;;;;;5.53;1.77;;;14.90;99.90;;;;;;4126879;28;20034;-79
2021/05/23 10:05:29;;;;;;;4.53;1.65;;;14.80;99.90;;;;;;4130039;28;20050;-79
2021/05/23 10:07:34;;;;;;;3.92;1.60;;;14.70;99.90;;;;;;4121593;28;20046;-79
2021/05/23 10:09:38;;;;;;;5.55;1.90;;;14.70;99.90;;;;;;4128091;28;20047;-79
2021/05/23 10:11:40;;;;;;;4.35;1.35;;;14.70;99.90;;;;;;4131109;28;20034;-79
2021/05/23 10:13:42;;;;;;;;;;;14.60;99.90;;;;;;4132850;28;20034;-79
2021/05/23 10:15:43;;;;;;;6.97;2.13;;;14.70;99.90;;;;;;4124912;28;19920;-79
2021/05/23 10:17:46;;;;;;;3.15;1.10;;;14.70;99.90;;;;;;4127172;28;20607;-79
2021/05/23 10:19:48;;;;;;;5.22;1.55;;;14.70;99.90;;;;;;4127393;28;20035;-79
2021/05/23 10:21:50;;;;;;;5.10;1.60;;;14.70;99.90;;;;;;4109709;28;20030;-79
2021/05/23 10:23:58;;;;;;;6.00;1.45;;;14.60;99.90;;;;;;4125382;28;20446;-79
2021/05/23 10:26:03;;;;;;;8.82;1.70;;;14.60;99.90;;;;;;4126969;28;20770;-79
2021/05/23 10:28:06;;;;;;;8.48;1.70;;;14.60;99.90;;;;;;4109951;28;20063;-79
2021/05/23 10:30:07;;;;;;;;;;;14.60;99.90;;;;;;4124918;28;20035;-79
2021/05/23 10:32:13;;;;;;;7.10;1.30;;;14.70;99.90;;;;;;4125997;28;19940;-79
2021/05/23 10:34:14;;;;;;;4.78;1.80;;;14.80;99.90;;;;;;4126257;28;20491;-79
2021/05/23 10:36:27;;;;;;;5.95;2.05;;;14.90;99.90;;;;;;4125174;28;20082;-79